Time;durP1;ratioP1;P1;durP2;ratioP2;P2;SDS_P1;SDS_P2;PMS_P1;PMS_P2;Temp;Humidity;BMP_temperature;BMP_pressure;BME280_temperature;BME280_humidity;BME280_pressure;Samples;Min_cycle;Max_cycle;Signal;HPM_P1;HPM_P2
2023/10/09 00:00:55;;;;;;;26.73;4.17;;;;;;;-145.69;54.41;52016.66;5074964;28;20313;-80
2023/10/09 00:03:23;;;;;;;24.13;4.13;;;;;;;-145.69;54.38;52044.38;5074673;28;20234;-79
2023/10/09 00:05:53;;;;;;;34.67;4.30;;;;;;;-145.69;53.67;52002.78;5074539;28;20213;-80
2023/10/09 00:08:21;;;;;;;27.40;4.77;;;;;;;-145.69;53.87;52036.44;5074897;28;20332;-80
2023/10/09 00:10:52;;;;;;;30.83;4.10;;;;;;;-145.69;54.26;52036.44;5074331;28;20226;-79
2023/10/09 00:13:19;;;;;;;27.13;4.45;;;;;;;-145.69;54.04;52018.63;5074360;28;20193;-80
2023/10/09 00:15:53;;;;;;;25.77;4.63;;;;;;;-145.69;54.54;51981.00;5074807;28;20213;-79
2023/10/09 00:18:28;;;;;;;30.13;4.80;;;;;;;-145.69;53.67;52036.44;5074679;28;20231;-79
2023/10/09 00:21:00;;;;;;;30.60;5.13;;;;;;;-145.69;53.36;52032.47;5074733;28;20206;-79
2023/10/09 00:23:27;;;;;;;21.45;4.32;;;;;;;-145.69;53.75;52024.56;5074139;28;20257;-80
2023/10/09 00:26:08;;;;;;;26.38;4.53;;;;;;;-145.69;54.27;52018.63;5074327;28;20323;-79
2023/10/09 00:28:36;;;;;;;25.03;4.07;;;;;;;-145.69;54.02;52032.47;5074370;28;20665;-80
2023/10/09 00:31:07;;;;;;;23.23;3.77;;;;;;;-145.69;53.47;52032.47;5073922;28;20286;-79
2023/10/09 00:33:34;;;;;;;33.80;4.38;;;;;;;-145.69;53.24;51998.81;5074425;28;20562;-79
2023/10/09 00:36:10;;;;;;;23.40;3.97;;;;;;;-145.69;53.16;52048.31;5073569;28;20195;-79
2023/10/09 00:38:38;;;;;;;21.33;3.78;;;;;;;-145.69;53.42;51996.84;5073809;28;20226;-82
2023/10/09 00:41:10;;;;;;;27.17;3.65;;;;;;;-145.69;53.41;52006.75;5073660;28;20355;-80
2023/10/09 00:43:37;;;;;;;19.10;3.77;;;;;;;-145.69;53.72;52024.56;5073610;28;20217;-80
2023/10/09 00:46:11;;;;;;;24.00;3.63;;;;;;;-145.69;53.40;52004.75;5074167;28;20221;-79
2023/10/09 00:48:39;;;;;;;25.55;3.60;;;;;;;-145.69;53.90;51996.84;5073832;28;20198;-80
2023/10/09 00:51:16;;;;;;;21.88;3.63;;;;;;;-145.69;53.32;52020.59;5074129;28;20285;-79
2023/10/09 00:53:45;;;;;;;21.02;3.97;;;;;;;-145.69;53.51;52014.66;5073719;28;20211;-79
2023/10/09 00:56:19;;;;;;;28.00;3.88;;;;;;;-145.69;53.78;52016.66;5073730;28;20199;-81
2023/10/09 00:58:46;;;;;;;20.75;3.83;;;;;;;-145.69;53.71;52044.38;5073747;28;20234;-80
2023/10/09 01:01:16;;;;;;;27.95;4.32;;;;;;;-145.69;53.59;52012.69;5073747;28;20203;-80
2023/10/09 01:03:43;;;;;;;20.38;4.07;;;;;;;-145.69;53.80;52034.47;5072714;28;20237;-79
2023/10/09 01:06:20;;;;;;;16.35;3.28;;;;;;;-145.69;53.30;51996.84;5073463;28;20202;-79
2023/10/09 01:08:56;;;;;;;19.13;3.67;;;;;;;-145.69;52.94;52036.44;5072420;28;20199;-79
2023/10/09 01:11:23;;;;;;;22.38;3.88;;;;;;;-145.69;53.65;52042.38;5072874;28;20230;-79
2023/10/09 01:13:59;;;;;;;16.15;3.05;;;;;;;-145.69;53.39;52024.56;5073555;28;20277;-79
2023/10/09 01:16:26;;;;;;;14.43;2.90;;;;;;;-145.69;54.33;52016.66;5073601;28;20233;-79
2023/10/09 01:18:56;;;;;;;19.23;3.45;;;;;;;-145.69;53.95;52026.53;5071330;28;20305;-79
2023/10/09 01:21:26;;;;;;;21.63;3.33;;;;;;;-145.69;53.91;52030.50;5071111;28;20195;-79
2023/10/09 01:24:04;;;;;;;19.95;3.60;;;;;;;-145.69;54.72;52018.63;5073270;28;20231;-78
2023/10/09 01:26:39;;;;;;;24.83;3.97;;;;;;;-145.69;54.26;52016.66;5073071;28;20657;-79
2023/10/09 01:29:10;;;;;;;22.70;4.20;;;;;;;-145.69;54.69;52022.59;5073442;28;20202;-79
2023/10/09 01:31:37;;;;;;;19.83;3.57;;;;;;;-145.69;55.05;52020.59;5072735;28;20203;-78
2023/10/09 01:34:09;;;;;;;16.08;3.15;;;;;;;-145.69;54.68;52024.56;5072353;28;20199;-79
2023/10/09 01:36:39;;;;;;;18.43;3.50;;;;;;;-145.69;54.48;52016.66;5072871;28;20595;-79
2023/10/09 01:39:21;;;;;;;18.53;3.37;;;;;;;-145.69;54.00;52014.66;5072700;28;20230;-78
2023/10/09 01:41:48;;;;;;;15.63;3.00;;;;;;;-145.69;54.35;52028.53;5072720;28;20195;-79
2023/10/09 01:44:16;;;;;;;12.18;3.17;;;;;;;-145.69;55.11;52014.66;5072832;28;20255;-79
2023/10/09 01:46:44;;;;;;;15.23;3.30;;;;;;;-145.69;55.44;52032.47;5072760;28;20194;-79
2023/10/09 01:49:17;;;;;;;12.95;3.53;;;;;;;-145.69;55.62;52012.69;5072819;28;20201;-79
2023/10/09 01:51:44;;;;;;;19.88;3.55;;;;;;;-145.69;55.24;52052.28;5073107;28;20221;-79
2023/10/09 01:54:27;;;;;;;19.05;2.95;;;;;;;-145.69;55.67;52030.50;5072701;28;20294;-79
2023/10/09 01:56:56;;;;;;;13.85;3.00;;;;;;;-145.69;55.32;52012.69;5073135;28;20230;-79
2023/10/09 01:59:22;;;;;;;22.33;2.92;;;;;;;-145.69;54.76;52032.47;5072766;28;20226;-78
2023/10/09 02:01:49;;;;;;;17.88;2.97;;;;;;;-145.69;53.97;52036.44;5071838;28;20657;-79
2023/10/09 02:04:19;;;;;;;19.90;3.35;;;;;;;-145.69;54.33;52022.59;5072649;28;20198;-79
2023/10/09 02:06:51;;;;;;;15.63;2.53;;;;;;;-145.69;54.38;52028.53;5072970;28;20563;-79
2023/10/09 02:09:26;;;;;;;18.63;3.08;;;;;;;-145.69;54.34;52014.66;5072927;28;20207;-79
2023/10/09 02:11:53;;;;;;;15.13;2.88;;;;;;;-145.69;53.91;52034.47;5072347;28;20645;-79
2023/10/09 02:14:24;;;;;;;13.65;2.53;;;;;;;-145.69;53.91;52024.56;5072505;28;20217;-78
2023/10/09 02:17:07;;;;;;;15.07;2.80;;;;;;;-145.69;54.24;52014.66;5072556;28;20231;-79
2023/10/09 02:19:34;;;;;;;12.63;2.60;;;;;;;-145.69;54.13;52056.25;5075228;28;20581;-79
2023/10/09 02:22:12;;;;;;;20.98;3.22;;;;;;;-145.69;54.66;52024.56;5076591;28;20252;-79
2023/10/09 02:30:15;;;;;;;11.45;2.97;;;;;;;-145.69;55.29;52044.38;5072025;28;20199;-78
2023/10/09 02:32:43;;;;;;;17.98;2.75;;;;;;;-145.69;55.29;52046.34;5076003;28;20195;-79
2023/10/09 02:35:21;;;;;;;9.75;2.40;;;;;;;-145.69;55.24;52014.66;5076495;28;20662;-79
2023/10/09 02:37:47;;;;;;;15.80;3.00;;;;;;;-145.69;54.80;52038.44;5076390;28;20209;-79
2023/10/09 02:40:23;;;;;;;15.00;2.47;;;;;;;-145.69;54.18;52032.47;5076536;28;20202;-79
2023/10/09 02:42:50;;;;;;;16.35;2.75;;;;;;;-145.69;53.66;51988.91;5076423;28;20206;-80
2023/10/09 02:45:16;;;;;;;16.75;2.92;;;;;;;-145.69;54.90;52030.50;5076353;28;20201;-80
2023/10/09 02:47:43;;;;;;;9.82;2.10;;;;;;;-145.69;55.22;52016.66;5075821;28;20624;-79
2023/10/09 02:50:19;;;;;;;17.63;3.42;;;;;;;-145.69;55.21;52012.69;5076105;28;20194;-80
2023/10/09 02:52:47;;;;;;;16.58;2.35;;;;;;;-145.69;55.37;52036.44;5076495;28;20202;-79
2023/10/09 02:55:23;;;;;;;16.92;3.13;;;;;;;-145.69;55.46;52024.56;5076406;28;20206;-79
2023/10/09 02:58:04;;;;;;;15.45;2.72;;;;;;;-145.69;56.27;52028.53;5075817;28;20247;-79
2023/10/09 03:00:32;;;;;;;11.68;2.60;;;;;;;-145.69;56.60;52010.69;5075853;28;20207;-79
2023/10/09 03:02:59;;;;;;;17.15;3.00;;;;;;;-145.69;54.96;52022.59;5075068;28;20219;-79
2023/10/09 03:05:27;;;;;;;10.43;2.70;;;;;;;-145.69;55.26;52016.66;5075601;28;20668;-79
2023/10/09 03:07:54;;;;;;;15.48;2.17;;;;;;;-145.69;55.08;52010.69;5075935;28;20623;-79
2023/10/09 03:10:22;;;;;;;21.30;2.88;;;;;;;-145.69;54.83;52008.72;5075587;28;20203;-80
2023/10/09 03:12:52;;;;;;;13.30;2.65;;;;;;;-145.69;55.22;52036.44;5075977;28;20195;-78
2023/10/09 03:15:20;;;;;;;18.33;3.00;;;;;;;-145.69;53.10;52008.72;5075625;28;20187;-79
2023/10/09 03:17:47;;;;;;;15.73;2.45;;;;;;;-145.69;53.08;52012.69;5069182;28;20202;-79
2023/10/09 03:20:14;;;;;;;15.52;2.75;;;;;;;-145.69;52.74;51992.88;5066914;28;20203;-79
2023/10/09 03:22:42;;;;;;;13.10;2.28;;;;;;;-145.69;52.72;52008.72;5075516;28;20248;-80
2023/10/09 03:25:11;;;;;;;19.80;2.80;;;;;;;-145.69;51.91;51996.84;5075387;28;20202;-80
2023/10/09 03:27:41;;;;;;;12.30;2.55;;;;;;;-145.69;51.98;51994.88;5075187;28;20252;-79
2023/10/09 03:30:16;;;;;;;7.80;2.20;;;;;;;-145.69;52.55;51984.97;5074963;28;20293;-80
2023/10/09 03:32:43;;;;;;;14.82;2.30;;;;;;;-145.69;52.72;52004.75;5075046;28;20224;-80
2023/10/09 03:35:14;;;;;;;14.90;2.22;;;;;;;-145.69;51.96;51988.91;5075128;28;20198;-80
2023/10/09 03:37:40;;;;;;;14.52;2.88;;;;;;;-145.69;51.87;52008.72;5075248;28;20206;-80
2023/10/09 03:40:08;;;;;;;16.67;2.75;;;;;;;-145.69;50.12;51973.06;5075247;28;20218;-79
2023/10/09 03:42:36;;;;;;;13.05;2.58;;;;;;;-145.69;51.48;52002.78;5075099;28;20317;-80
2023/10/09 03:45:12;;;;;;;8.63;1.67;;;;;;;-145.69;52.11;52006.75;5075181;28;20218;-80
2023/10/09 03:47:42;;;;;;;17.33;2.63;;;;;;;-145.69;53.03;52006.75;5075016;28;20233;-80
2023/10/09 03:50:26;;;;;;;10.57;2.20;;;;;;;-145.69;52.80;51973.06;5074993;28;20252;-79
2023/10/09 03:52:53;;;;;;;17.05;2.90;;;;;;;-145.69;52.34;52020.59;5075323;28;20206;-80
2023/10/09 03:55:22;;;;;;;15.52;2.10;;;;;;;-145.69;51.97;52004.75;5074941;28;20776;-79
2023/10/09 03:57:48;;;;;;;16.70;2.70;;;;;;;-145.69;49.95;52006.75;5074753;28;20202;-80
2023/10/09 04:00:22;;;;;;;19.98;3.05;;;;;;;-145.69;50.92;52000.81;5074747;28;20692;-80
2023/10/09 04:02:50;;;;;;;13.27;2.38;;;;;;;-145.69;51.61;52004.75;5074241;28;20222;-79
2023/10/09 04:05:17;;;;;;;18.00;2.70;;;;;;;-145.69;50.66;51992.88;5075102;28;20252;-79
2023/10/09 04:07:44;;;;;;;22.65;2.65;;;;;;;-145.69;51.17;51986.94;5074665;28;20207;-80
2023/10/09 04:10:32;;;;;;;9.15;1.95;;;;;;;-145.69;51.13;52014.66;5074877;28;20307;-79
2023/10/09 04:13:00;;;;;;;7.22;2.30;;;;;;;-145.69;51.02;52030.50;5074510;28;20234;-80
2023/10/09 04:15:30;;;;;;;19.55;3.03;;;;;;;-145.69;51.55;52000.81;5074481;28;20203;-80
2023/10/09 04:17:58;;;;;;;11.68;2.40;;;;;;;-145.69;51.54;51988.91;5074880;28;20199;-79
2023/10/09 04:23:15;;;;;;;16.25;3.35;;;;;;;-145.69;52.60;52014.66;5073882;28;20205;-79
2023/10/09 04:25:42;;;;;;;15.73;2.65;;;;;;;-145.69;52.12;52022.59;5074655;28;20199;-80
2023/10/09 04:28:09;;;;;;;11.60;2.92;;;;;;;-145.69;51.96;52006.75;5074180;28;20211;-79
2023/10/09 04:30:40;;;;;;;16.15;2.97;;;;;;;-145.69;50.08;52028.53;5074388;28;20596;-80
2023/10/09 04:33:11;;;;;;;10.77;2.15;;;;;;;-145.69;50.75;52016.66;5073713;28;20205;-79
2023/10/09 04:35:39;;;;;;;17.15;2.45;;;;;;;-145.69;51.13;52004.75;5074387;28;20199;-79
2023/10/09 04:38:06;;;;;;;17.63;2.83;;;;;;;-145.69;51.13;51973.06;5074093;28;20207;-80
2023/10/09 04:40:51;;;;;;;17.88;2.28;;;;;;;-145.69;51.61;52028.53;5074013;28;20250;-79
2023/10/09 04:43:21;;;;;;;17.45;2.47;;;;;;;-145.69;50.39;52016.66;5073176;28;20648;-79
2023/10/09 04:48:38;;;;;;;12.88;2.67;;;;;;;-145.69;50.95;52034.47;5074066;28;20206;-79
2023/10/09 04:51:34;;;;;;;16.55;2.78;;;;;;;-145.69;50.28;52002.78;5073677;28;20198;-80
2023/10/09 04:54:13;;;;;;;15.30;2.30;;;;;;;-145.69;51.51;52000.81;5073785;28;20221;-80
2023/10/09 04:56:51;;;;;;;20.70;2.83;;;;;;;-145.69;50.72;52018.63;5073860;28;20194;-79
2023/10/09 04:59:24;;;;;;;16.33;3.17;;;;;;;-145.69;49.59;51973.06;5072694;28;20296;-79
2023/10/09 05:01:58;;;;;;;15.77;2.95;;;;;;;-145.69;49.19;52002.78;5073539;28;20292;-79
2023/10/09 05:04:39;;;;;;;11.88;2.20;;;;;;;-145.69;49.33;52006.75;5073399;28;20231;-79
2023/10/09 05:07:22;;;;;;;13.38;2.42;;;;;;;-145.69;50.14;52006.75;5073541;28;20198;-79
2023/10/09 05:10:14;;;;;;;18.25;2.83;;;;;;;-145.69;49.99;52014.66;5073486;28;20207;-79
2023/10/09 05:12:46;;;;;;;19.02;2.60;;;;;;;-145.69;49.70;52032.47;5070286;28;20207;-80
2023/10/09 05:15:13;;;;;;;8.43;2.75;;;;;;;-145.69;49.72;51969.13;5073627;28;20206;-79
2023/10/09 05:17:45;;;;;;;11.13;2.13;;;;;;;-145.69;47.34;52032.47;5073206;28;20209;-79
2023/10/09 05:23:23;;;;;;;20.50;2.65;;;;;;;-145.69;47.30;52000.81;5073024;28;20696;-79
2023/10/09 05:25:58;;;;;;;18.63;2.72;;;;;;;-145.69;47.50;51979.03;5070820;28;20682;-79
2023/10/09 05:28:48;;;;;;;10.63;2.25;;;;;;;-145.69;46.38;51977.03;5072685;28;20195;-79
2023/10/09 05:31:44;;;;;;;12.88;2.50;;;;;;;-145.69;46.60;51996.84;5073168;28;20209;-79
2023/10/09 05:34:02;;;;;;;13.20;2.50;;;;;;;-145.69;48.04;51981.00;5071152;28;20604;-79
2023/10/09 05:36:35;;;;;;;18.30;2.50;;;;;;;-145.69;46.16;52004.75;5073106;28;20289;-79
2023/10/09 05:41:52;;;;;;;15.27;2.55;;;;;;;-145.69;47.91;52010.69;5072904;28;20593;-80
2023/10/09 05:49:54;;;;;;;15.90;3.05;;;;;;;-145.69;49.35;52014.66;5072203;28;20677;-80
2023/10/09 05:53:00;;;;;;;17.25;3.35;;;;;;;-145.69;49.61;52018.63;5072859;28;20286;-80
2023/10/09 06:03:55;;;;;;;7.50;2.38;;;;;;;-145.69;46.66;51986.94;5046311;28;20253;-79
2023/10/09 06:09:28;;;;;;;9.88;2.45;;;;;;;-145.69;46.19;51988.91;5070418;28;20236;-80
2023/10/09 06:14:49;;;;;;;14.95;2.60;;;;;;;-145.69;45.46;51990.91;5072052;28;20277;-80
2023/10/09 06:17:23;;;;;;;14.85;2.60;;;;;;;-145.69;46.04;51996.84;5072301;28;20719;-80
2023/10/09 06:19:58;;;;;;;16.30;2.13;;;;;;;-145.69;46.71;52020.59;5072377;28;20317;-81
2023/10/09 06:25:27;;;;;;;15.85;2.28;;;;;;;-145.69;45.50;51941.41;5072364;28;20198;-80
2023/10/09 06:27:59;;;;;;;15.43;2.60;;;;;;;-145.69;44.97;51996.84;5072824;28;20291;-79
2023/10/09 06:30:26;;;;;;;11.77;2.25;;;;;;;-145.69;44.83;51953.28;5071905;28;20199;-80
2023/10/09 06:33:04;;;;;;;10.90;2.45;;;;;;;-145.69;45.24;51971.09;5072401;28;20199;-80
2023/10/09 06:35:35;;;;;;;16.70;2.45;;;;;;;-145.69;46.62;51973.06;5072150;28;20256;-80
2023/10/09 06:43:42;;;;;;;10.30;2.35;;;;;;;-145.69;48.33;51971.09;5072383;28;20198;-80
2023/10/09 06:46:43;;;;;;;13.45;2.53;;;;;;;-145.69;48.06;51981.00;5071014;28;20253;-79
2023/10/09 06:51:55;;;;;;;15.25;2.05;;;;;;;-145.69;48.06;52000.81;5071541;28;20198;-80
2023/10/09 06:54:25;;;;;;;24.02;2.75;;;;;;;-145.69;48.10;51973.06;5072559;28;20594;-80
2023/10/09 07:00:11;;;;;;;9.50;2.40;;;;;;;-145.69;47.46;51913.69;5070677;28;20230;-80
2023/10/09 07:02:31;;;;;;;11.43;2.60;;;;;;;-145.69;47.72;51975.06;5071872;28;20638;-79
2023/10/09 07:05:10;;;;;;;11.93;2.20;;;;;;;-145.69;47.29;51925.56;5072393;28;20203;-80
2023/10/09 07:07:41;;;;;;;15.65;2.13;;;;;;;-145.69;47.02;51945.34;5075549;28;20712;-80
2023/10/09 07:10:32;;;;;;;16.98;2.60;;;;;;;-145.69;46.88;51939.41;5075840;28;20650;-80
2023/10/09 07:13:01;;;;;;;9.13;2.60;;;;;;;-145.69;47.10;51925.56;5075439;28;20693;-80
2023/10/09 07:18:40;;;;;;;13.57;3.13;;;;;;;-145.69;45.37;51945.34;5075737;28;20261;-80
2023/10/09 07:21:11;;;;;;;11.27;2.72;;;;;;;-145.69;45.78;51945.34;5075271;28;20704;-80
2023/10/09 07:23:48;;;;;;;15.40;2.55;;;;;;;-145.69;45.28;51923.56;5075693;28;20201;-80
2023/10/09 07:26:23;;;;;;;16.15;2.22;;;;;;;-145.69;45.27;51949.31;5075668;28;20259;-80
2023/10/09 07:29:00;;;;;;;17.70;2.38;;;;;;;-145.69;45.48;51913.69;5075011;28;20206;-80
2023/10/09 07:31:27;;;;;;;13.43;2.53;;;;;;;-145.69;45.57;51945.34;5074936;28;20190;-79
2023/10/09 07:34:06;;;;;;;18.83;2.10;;;;;;;-145.69;45.49;51903.78;5075553;28;20206;-80
2023/10/09 07:36:34;;;;;;;9.85;2.53;;;;;;;-145.69;44.94;51913.69;5075511;28;20206;-80
2023/10/09 07:39:02;;;;;;;15.50;2.42;;;;;;;-145.69;44.99;51913.69;5075216;28;20697;-80
2023/10/09 07:41:37;;;;;;;14.95;2.17;;;;;;;-145.69;44.55;51903.78;5074999;28;20289;-80
2023/10/09 07:44:33;;;;;;;10.15;2.42;;;;;;;-145.69;44.61;51919.63;5075443;28;20213;-80
2023/10/09 07:47:16;;;;;;;13.52;2.58;;;;;;;-145.69;44.84;51941.41;5075162;28;20195;-80
2023/10/09 07:49:48;;;;;;;10.02;2.17;;;;;;;-145.69;44.20;51905.75;5074805;28;20202;-80
2023/10/09 07:52:15;;;;;;;9.32;2.05;;;;;;;-145.69;43.10;51878.03;5075320;28;20198;-80
2023/10/09 07:54:49;;;;;;;4.00;1.80;;;;;;;-145.69;43.49;51905.75;5075130;28;20207;-80
2023/10/09 07:57:16;;;;;;;17.08;2.55;;;;;;;-145.69;44.31;51911.69;5074697;28;20205;-80
2023/10/09 07:59:54;;;;;;;14.38;2.08;;;;;;;-145.69;44.23;51917.63;5074506;28;20219;-80
2023/10/09 08:02:31;;;;;;;16.23;2.20;;;;;;;-145.69;42.54;51882.00;5074392;28;20693;-80
2023/10/09 08:05:03;;;;;;;13.60;2.50;;;;;;;-145.69;41.44;51872.09;5075275;28;20240;-80
2023/10/09 08:07:35;;;;;;;11.75;2.38;;;;;;;-145.69;41.49;51897.84;5074613;28;20231;-80
2023/10/09 08:12:58;;;;;;;16.73;2.67;;;;;;;-145.69;41.59;51854.28;5074486;28;20210;-80
2023/10/09 08:15:34;;;;;;;14.50;2.40;;;;;;;-145.69;40.05;51885.94;5074757;28;20195;-80
2023/10/09 08:18:09;;;;;;;8.57;2.15;;;;;;;-145.69;40.71;51862.19;5074609;28;20281;-80
2023/10/09 08:20:51;;;;;;;14.60;2.05;;;;;;;-145.69;39.46;51834.47;5074003;28;20229;-81
2023/10/09 08:23:28;;;;;;;14.48;3.25;;;;;;;-145.69;37.38;51850.31;5074851;28;20271;-81
2023/10/09 08:26:12;;;;;;;9.95;2.55;;;;;;;-145.69;37.45;51830.50;5074529;28;20198;-81
2023/10/09 08:28:42;;;;;;;13.15;2.85;;;;;;;-145.69;37.88;51834.47;5074418;28;20289;-80
2023/10/09 08:31:34;;;;;;;18.52;3.13;;;;;;;-145.69;37.31;51840.41;5070495;28;20244;-81
2023/10/09 08:34:24;;;;;;;14.50;2.78;;;;;;;-145.69;35.57;51842.38;5074179;28;20207;-81
2023/10/09 08:36:52;;;;;;;15.23;2.45;;;;;;;-145.69;36.42;51854.28;5074361;28;20203;-81
2023/10/09 08:39:25;;;;;;;13.82;2.88;;;;;;;-145.69;36.88;51824.56;5074386;28;20555;-81
2023/10/09 08:41:51;;;;;;;16.52;3.08;;;;;;;-145.69;35.58;51858.22;5074222;28;20199;-81
2023/10/09 08:44:22;;;;;;;19.90;2.55;;;;;;;-145.69;33.35;51814.66;5061992;28;20195;-81
2023/10/09 08:46:51;;;;;;;14.77;2.38;;;;;;;-145.69;33.76;51836.44;5062987;28;20195;-81
2023/10/09 08:49:18;;;;;;;20.70;2.53;;;;;;;-145.69;34.24;51794.88;5074158;28;20194;-81
2023/10/09 08:51:47;;;;;;;15.60;2.20;;;;;;;-145.69;34.29;51806.75;5074800;28;20213;-81
2023/10/09 08:54:14;;;;;;;18.95;3.00;;;;;;;-145.69;33.72;51783.00;5073166;28;20195;-80
2023/10/09 08:56:49;;;;;;;14.27;2.60;;;;;;;-145.69;33.42;51798.81;5075112;28;20203;-81
2023/10/09 08:59:18;;;;;;;17.83;2.50;;;;;;;-145.69;33.83;51820.59;5073465;28;20197;-80
2023/10/09 09:01:44;;;;;;;14.25;3.28;;;;;;;-145.69;33.61;51808.72;5073423;28;20230;-80
2023/10/09 09:04:36;;;;;;;15.20;3.00;;;;;;;-145.69;32.92;51798.81;5073077;28;20202;-80
2023/10/09 09:07:05;;;;;;;16.58;3.45;;;;;;;-145.69;33.30;51808.72;5073515;28;20231;-80
2023/10/09 09:09:33;;;;;;;12.98;2.45;;;;;;;-145.69;33.08;51775.06;5073619;28;20285;-80
2023/10/09 09:12:00;;;;;;;14.40;2.83;;;;;;;-145.69;33.44;51802.78;5073548;28;20203;-80
2023/10/09 09:14:36;;;;;;;23.75;3.15;;;;;;;-145.69;32.44;51783.00;5073571;28;20199;-80
2023/10/09 09:17:05;;;;;;;15.75;3.72;;;;;;;-145.69;33.40;51796.84;5071890;28;20198;-79
2023/10/09 09:19:37;;;;;;;18.58;3.00;;;;;;;-145.69;32.46;51786.94;5072746;28;20278;-80
2023/10/09 09:22:12;;;;;;;13.55;2.67;;;;;;;-145.69;32.82;51769.13;5073420;28;20202;-80
2023/10/09 09:24:45;;;;;;;14.73;2.35;;;;;;;-145.69;32.48;51784.97;5073400;28;20645;-81
2023/10/09 09:27:18;;;;;;;25.50;3.70;;;;;;;-145.69;32.03;51769.13;5073453;28;20210;-80
2023/10/09 09:29:52;;;;;;;21.30;4.45;;;;;;;-145.69;31.86;51773.09;5070451;28;20238;-80
2023/10/09 09:32:29;;;;;;;23.17;3.25;;;;;;;-145.69;31.17;51786.94;5073586;28;20190;-81
2023/10/09 09:35:00;;;;;;;18.02;3.45;;;;;;;-145.69;31.86;51781.00;5073554;28;20209;-81
2023/10/09 09:37:33;;;;;;;24.58;3.63;;;;;;;-145.69;32.82;51796.84;5073226;28;20202;-80
2023/10/09 09:40:03;;;;;;;17.85;3.35;;;;;;;-145.69;31.91;51771.09;5072752;28;20303;-80
2023/10/09 09:42:32;;;;;;;15.80;3.00;;;;;;;-145.69;32.30;51759.22;5073124;28;20202;-80
2023/10/09 09:45:01;;;;;;;12.32;2.53;;;;;;;-145.69;32.43;51779.03;5072924;28;20194;-80
2023/10/09 09:47:29;;;;;;;21.70;2.75;;;;;;;-145.69;32.15;51767.16;5072731;28;20678;-80
2023/10/09 09:50:00;;;;;;;19.05;2.95;;;;;;;-145.69;31.74;51771.09;5072574;28;20191;-80
2023/10/09 09:52:29;;;;;;;18.80;2.72;;;;;;;-145.69;31.09;51763.19;5072780;28;20685;-80
2023/10/09 09:54:57;;;;;;;13.60;2.72;;;;;;;-145.69;32.05;51769.13;5072509;28;20190;-80
2023/10/09 09:57:26;;;;;;;10.70;2.35;;;;;;;-145.69;32.14;51775.06;5072827;28;20210;-80
2023/10/09 09:59:56;;;;;;;18.52;2.80;;;;;;;-145.69;32.09;51779.03;5072221;28;20219;-80
2023/10/09 10:02:33;;;;;;;23.85;3.33;;;;;;;-145.69;31.29;51777.03;5072129;28;20233;-80
2023/10/09 10:05:07;;;;;;;10.98;3.30;;;;;;;-145.69;31.80;51781.00;5072485;28;20202;-81
2023/10/09 10:07:41;;;;;;;19.17;3.20;;;;;;;-145.69;31.73;51759.22;5072356;28;20226;-80
2023/10/09 10:10:37;;;;;;;21.35;3.63;;;;;;;-145.69;31.55;51771.09;5071930;28;20198;-80
2023/10/09 10:13:14;;;;;;;18.92;4.22;;;;;;;-145.69;31.26;51806.75;5072629;28;20206;-80
2023/10/09 10:16:08;;;;;;;27.50;5.03;;;;;;;-145.69;31.46;51786.94;5072523;28;20202;-80
2023/10/09 10:18:53;;;;;;;17.67;3.42;;;;;;;-145.69;32.05;51755.25;5072567;28;20269;-80
2023/10/09 10:21:33;;;;;;;17.90;2.75;;;;;;;-145.69;31.74;51753.28;5073292;28;20712;-80
2023/10/09 10:24:10;;;;;;;18.05;3.08;;;;;;;-145.69;32.87;51769.13;5072865;28;20194;-80
2023/10/09 10:26:37;;;;;;;20.13;3.35;;;;;;;-145.69;31.77;51751.31;5072579;28;20203;-79
2023/10/09 10:29:26;;;;;;;21.73;2.80;;;;;;;-145.69;31.73;51761.22;5072189;28;20191;-78
2023/10/09 10:31:56;;;;;;;15.38;3.13;;;;;;;-145.69;31.94;51727.53;5052241;28;20208;-78
2023/10/09 10:34:27;;;;;;;17.88;3.45;;;;;;;-145.69;32.28;51755.25;5072663;28;20197;-79
2023/10/09 10:36:59;;;;;;;19.50;4.00;;;;;;;-145.69;31.79;51733.50;5072007;28;20289;-78
2023/10/09 10:42:34;;;;;;;23.58;3.58;;;;;;;-145.69;30.86;51739.44;5152034;27;20553;-79
2023/10/09 10:45:33;;;;;;;16.90;2.80;;;;;;;-145.69;30.54;51757.25;5152263;27;20200;-80
2023/10/09 10:47:56;;;;;;;15.27;3.38;;;;;;;-145.69;30.15;51733.50;5151314;27;20204;-80
2023/10/09 10:50:35;;;;;;;20.35;3.13;;;;;;;-145.69;30.52;51751.31;5151867;27;20287;-80
2023/10/09 10:53:17;;;;;;;15.70;2.58;;;;;;;-145.69;29.43;51743.38;5151551;27;20226;-80
2023/10/09 10:55:56;;;;;;;21.17;4.47;;;;;;;-145.69;29.53;51749.31;5151432;27;20278;-80
2023/10/09 10:58:35;;;;;;;14.82;3.03;;;;;;;-145.69;29.45;51707.75;5151814;27;20196;-81
2023/10/09 11:01:13;;;;;;;12.55;2.92;;;;;;;-145.69;29.31;51737.44;5150889;27;20227;-80
2023/10/09 11:03:59;;;;;;;17.02;3.35;;;;;;;-145.69;29.75;51707.75;5151429;27;20203;-80
2023/10/09 11:06:37;;;;;;;22.33;3.03;;;;;;;-145.69;29.79;51719.63;5150192;27;20666;-80
2023/10/09 11:09:10;;;;;;;13.52;3.25;;;;;;;-145.69;29.98;51715.66;5151273;27;20631;-80
2023/10/09 11:11:42;;;;;;;21.60;3.17;;;;;;;-145.69;30.40;51725.56;5150471;27;20203;-81
2023/10/09 11:14:14;;;;;;;19.73;3.38;;;;;;;-145.69;30.33;51719.63;5151114;27;20267;-80
2023/10/09 11:16:47;;;;;;;20.90;3.50;;;;;;;-145.69;29.82;51711.72;5150929;27;20203;-80
2023/10/09 11:19:28;;;;;;;17.65;2.80;;;;;;;-145.69;29.90;51755.25;5150962;27;20200;-80
2023/10/09 11:25:12;;;;;;;15.30;2.50;;;;;;;-145.69;29.71;51711.72;5110425;27;20558;-79
2023/10/09 11:27:50;;;;;;;20.92;3.58;;;;;;;-145.69;28.95;51723.59;5110839;28;20216;-79
2023/10/09 11:30:29;;;;;;;17.63;3.38;;;;;;;-145.69;28.30;51715.66;5109739;28;20194;-80
2023/10/09 11:33:13;;;;;;;21.20;3.28;;;;;;;-145.69;29.13;51701.81;5109597;28;20197;-79
2023/10/09 11:35:42;;;;;;;13.73;2.90;;;;;;;-145.69;29.64;51739.44;5109486;28;20216;-80
2023/10/09 11:38:21;;;;;;;17.90;2.78;;;;;;;-145.69;29.63;51695.88;5110320;28;20553;-79
2023/10/09 11:41:03;;;;;;;20.15;3.08;;;;;;;-145.69;30.02;51693.88;5109888;28;20196;-79
2023/10/09 11:43:51;;;;;;;14.82;3.20;;;;;;;-145.69;29.92;51731.50;5110231;28;20225;-79
2023/10/09 11:46:36;;;;;;;23.75;3.78;;;;;;;-145.69;29.53;51715.66;5110089;28;20628;-79
2023/10/09 11:49:16;;;;;;;22.00;3.63;;;;;;;-145.69;29.29;51701.81;5110081;28;20205;-79
2023/10/09 11:52:03;;;;;;;19.92;3.30;;;;;;;-145.69;29.00;51711.72;5110410;28;20194;-79
2023/10/09 11:54:30;;;;;;;14.10;2.83;;;;;;;-145.69;29.43;51695.88;5109658;28;20202;-79
2023/10/09 11:57:00;;;;;;;18.75;2.63;;;;;;;-145.69;28.84;51715.66;5109862;28;20197;-79
2023/10/09 11:59:27;;;;;;;22.58;3.42;;;;;;;-145.69;29.04;51715.66;5109267;28;20194;-79
2023/10/09 12:02:00;;;;;;;14.50;3.45;;;;;;;-145.69;29.34;51727.53;5109785;28;20190;-79
2023/10/09 12:04:30;;;;;;;14.02;2.70;;;;;;;-145.69;28.58;51703.78;5109290;28;20228;-79
2023/10/09 12:07:06;;;;;;;20.77;3.55;;;;;;;-145.69;29.20;51739.44;5109588;28;20652;-79
2023/10/09 12:09:34;;;;;;;14.85;2.90;;;;;;;-145.69;29.85;51699.81;5109531;28;20266;-79
2023/10/09 12:12:03;;;;;;;14.85;2.72;;;;;;;-145.69;29.68;51727.53;5109137;28;20619;-78
2023/10/09 12:14:33;;;;;;;15.15;3.22;;;;;;;-145.69;29.71;51727.53;5109159;28;20185;-79
2023/10/09 12:17:05;;;;;;;17.98;2.95;;;;;;;-145.69;29.30;51721.59;5108653;28;20202;-80
2023/10/09 12:19:32;;;;;;;14.88;3.13;;;;;;;-145.69;29.74;51763.19;5109384;28;20606;-79
2023/10/09 12:22:00;;;;;;;24.02;4.07;;;;;;;-145.69;29.43;51751.31;5109567;28;20205;-79
2023/10/09 12:24:28;;;;;;;18.60;3.10;;;;;;;-145.69;30.07;51731.50;5109099;28;20298;-80
2023/10/09 12:26:55;;;;;;;20.67;3.17;;;;;;;-145.69;29.39;51747.34;5109715;28;20205;-79
2023/10/09 12:29:23;;;;;;;17.45;3.28;;;;;;;-145.69;28.85;51719.63;5109324;28;20198;-79
2023/10/09 12:31:57;;;;;;;25.52;3.85;;;;;;;-145.69;28.62;51719.63;5108782;28;20733;-80
2023/10/09 12:34:26;;;;;;;27.17;3.53;;;;;;;-145.69;28.57;51727.53;5106166;28;20205;-79
2023/10/09 12:36:53;;;;;;;15.75;3.10;;;;;;;-145.69;28.80;51693.88;5095229;28;20206;-80
2023/10/09 12:39:20;;;;;;;15.93;3.28;;;;;;;-145.69;28.95;51719.63;5095629;28;20198;-79